Time;durP1;ratioP1;P1;durP2;ratioP2;P2;SDS_P1;SDS_P2;PMS_P1;PMS_P2;Temp;Humidity;BMP_temperature;BMP_pressure;BME280_temperature;BME280_humidity;BME280_pressure;Samples;Min_cycle;Max_cycle;Signal;HPM_P1;HPM_P2
2023/04/13 00:00:39;;;;;;;3.50;1.30;;;5.80;1.00;;;;;;5040940;28;20678;-66
2023/04/13 00:03:07;;;;;;;4.30;1.33;;;5.80;1.00;;;;;;5040946;28;20729;-66
2023/04/13 00:05:35;;;;;;;2.57;1.40;;;5.80;1.00;;;;;;5033076;28;20191;-66
2023/04/13 00:08:02;;;;;;;1.63;1.40;;;5.80;1.00;;;;;;5034792;28;20287;-66
2023/04/13 00:10:30;;;;;;;3.33;1.40;;;5.80;1.00;;;;;;5044865;28;20231;-67
2023/04/13 00:12:57;;;;;;;3.00;1.60;;;5.80;1.00;;;;;;5028561;28;20244;-68
2023/04/13 00:15:24;;;;;;;7.37;1.77;;;5.70;1.00;;;;;;5050015;28;20208;-69
2023/04/13 00:17:52;;;;;;;2.80;1.77;;;5.60;1.00;;;;;;5038686;28;20246;-69
2023/04/13 00:20:20;;;;;;;1.80;1.40;;;5.60;1.00;;;;;;5012295;28;20208;-66
2023/04/13 00:22:47;;;;;;;2.13;1.40;;;5.60;1.00;;;;;;5026949;28;20556;-65
2023/04/13 00:25:15;;;;;;;1.40;1.17;;;5.50;1.00;;;;;;5033529;28;20200;-67
2023/04/13 00:27:43;;;;;;;1.60;1.20;;;5.60;1.00;;;;;;5042085;28;20239;-67
2023/04/13 00:30:13;;;;;;;4.70;1.57;;;5.60;1.00;;;;;;5019906;28;20199;-67
2023/04/13 00:32:42;;;;;;;2.83;1.50;;;5.60;1.00;;;;;;5047809;28;20202;-67
2023/04/13 00:35:12;;;;;;;2.70;1.40;;;5.60;1.00;;;;;;5048868;28;20202;-68
2023/04/13 00:37:41;;;;;;;1.57;1.20;;;5.60;1.00;;;;;;5029744;28;20199;-67
2023/04/13 00:40:10;;;;;;;2.10;1.30;;;5.60;1.00;;;;;;5021323;28;20224;-67
2023/04/13 00:42:37;;;;;;;2.00;1.23;;;5.70;1.00;;;;;;5032134;28;20192;-67
2023/04/13 00:45:05;;;;;;;1.20;1.10;;;5.70;1.00;;;;;;5016108;28;20199;-67
2023/04/13 00:47:32;;;;;;;1.70;1.10;;;5.80;1.00;;;;;;5010815;28;20192;-66
2023/04/13 00:50:01;;;;;;;1.80;1.20;;;5.80;1.00;;;;;;5043705;28;20210;-66
2023/04/13 00:52:28;;;;;;;2.37;1.30;;;5.80;1.00;;;;;;5030209;28;20202;-66
2023/04/13 00:55:01;;;;;;;3.10;1.30;;;5.90;1.00;;;;;;5032971;28;20190;-67
2023/04/13 00:57:31;;;;;;;2.97;1.30;;;5.90;1.00;;;;;;5013454;28;20261;-67
2023/04/13 01:00:11;;;;;;;1.57;1.30;;;6.00;1.00;;;;;;5045129;28;20715;-67
2023/04/13 01:02:41;;;;;;;1.73;1.23;;;6.10;1.00;;;;;;5022852;28;20624;-67
2023/04/13 01:05:13;;;;;;;3.83;1.30;;;6.10;1.00;;;;;;5045536;28;20194;-67
2023/04/13 01:08:00;;;;;;;2.83;1.43;;;6.20;1.00;;;;;;5021805;28;20214;-67
2023/04/13 01:10:37;;;;;;;2.90;1.13;;;6.30;1.00;;;;;;5005598;28;20310;-66
2023/04/13 01:13:22;;;;;;;1.53;1.07;;;6.40;1.00;;;;;;5024573;28;20187;-66
2023/04/13 01:16:24;;;;;;;4.33;1.10;;;6.40;1.00;;;;;;5026696;28;20206;-66
2023/04/13 01:18:53;;;;;;;2.83;1.10;;;6.40;1.00;;;;;;5015565;28;20283;-67
2023/04/13 01:21:26;;;;;;;2.17;1.10;;;6.60;1.00;;;;;;5037420;28;20311;-66
2023/04/13 01:24:04;;;;;;;3.60;1.13;;;6.70;1.00;;;;;;5019794;28;20624;-66
2023/04/13 01:26:49;;;;;;;2.13;0.93;;;6.80;1.00;;;;;;5026908;28;20196;-66
2023/04/13 01:29:17;;;;;;;4.20;1.40;;;6.80;1.00;;;;;;5045485;28;20695;-66
2023/04/13 01:31:44;;;;;;;1.83;1.00;;;6.90;1.00;;;;;;5015629;28;20188;-66
2023/04/13 01:34:12;;;;;;;2.13;1.30;;;6.90;1.00;;;;;;5054376;28;20537;-66
2023/04/13 01:36:39;;;;;;;3.13;1.17;;;6.90;1.00;;;;;;5016257;28;20199;-65
2023/04/13 01:39:09;;;;;;;3.10;1.10;;;6.90;1.00;;;;;;5034426;28;20806;-66
2023/04/13 01:41:37;;;;;;;1.50;1.10;;;6.70;1.00;;;;;;5013466;28;20598;-66
2023/04/13 01:44:04;;;;;;;3.23;1.30;;;6.60;1.00;;;;;;5035870;28;20686;-66
2023/04/13 01:46:34;;;;;;;3.93;1.23;;;6.70;1.00;;;;;;5030893;28;20211;-67
2023/04/13 01:49:09;;;;;;;3.60;1.30;;;6.60;1.00;;;;;;5028056;28;20219;-66
2023/04/13 01:52:07;;;;;;;2.10;1.03;;;6.60;1.00;;;;;;5037287;28;20192;-66
2023/04/13 01:54:38;;;;;;;2.47;1.03;;;6.80;1.00;;;;;;5011987;28;20230;-69
2023/04/13 01:57:06;;;;;;;4.70;1.20;;;6.70;1.00;;;;;;5055639;28;20210;-67
2023/04/13 01:59:34;;;;;;;2.50;1.10;;;6.70;1.00;;;;;;5024605;28;20196;-67
2023/04/13 02:02:01;;;;;;;2.63;1.20;;;6.70;1.00;;;;;;5044442;28;20208;-65
2023/04/13 02:04:30;;;;;;;2.40;1.00;;;6.80;1.00;;;;;;5026993;28;20207;-66
2023/04/13 02:06:57;;;;;;;1.97;1.07;;;6.80;1.00;;;;;;5029050;28;20638;-66
2023/04/13 02:09:29;;;;;;;4.33;1.17;;;6.80;1.00;;;;;;5027044;28;20188;-66
2023/04/13 02:11:56;;;;;;;2.10;1.20;;;6.80;1.00;;;;;;5043132;28;20191;-66
2023/04/13 02:14:24;;;;;;;3.33;1.27;;;6.80;1.00;;;;;;5032189;28;20191;-66
2023/04/13 02:16:52;;;;;;;2.13;1.00;;;6.90;1.00;;;;;;5035922;28;20195;-65
2023/04/13 02:19:20;;;;;;;1.83;1.10;;;6.90;1.00;;;;;;5025995;28;20562;-65
2023/04/13 02:21:47;;;;;;;1.77;1.20;;;7.00;1.00;;;;;;5036487;28;20191;-67
2023/04/13 02:24:17;;;;;;;2.47;1.20;;;7.00;1.00;;;;;;5048275;28;20245;-65
2023/04/13 02:26:44;;;;;;;2.77;1.30;;;7.10;1.00;;;;;;5033167;28;20659;-67
2023/04/13 02:29:13;;;;;;;7.23;1.37;;;7.20;1.00;;;;;;5045609;28;20667;-65
2023/04/13 02:31:44;;;;;;;1.20;1.00;;;7.20;1.00;;;;;;5012455;28;20663;-67
2023/04/13 02:34:11;;;;;;;2.27;0.90;;;7.30;1.00;;;;;;5051648;28;20195;-65
2023/04/13 02:36:39;;;;;;;2.80;1.00;;;7.30;1.00;;;;;;5017147;28;20200;-66
2023/04/13 02:39:08;;;;;;;5.10;1.30;;;7.20;1.00;;;;;;5031759;28;20234;-65
2023/04/13 02:41:35;;;;;;;2.57;1.20;;;7.20;1.00;;;;;;5016717;28;20776;-66
2023/04/13 02:44:02;;;;;;;2.13;1.00;;;7.20;1.00;;;;;;5030475;28;20677;-66
2023/04/13 02:46:42;;;;;;;2.53;0.90;;;7.20;1.00;;;;;;5026050;28;20188;-65
2023/04/13 02:49:14;;;;;;;4.20;1.10;;;7.20;1.00;;;;;;5038810;28;20762;-65
2023/04/13 02:51:53;;;;;;;1.67;1.03;;;7.20;1.00;;;;;;5035230;28;20291;-65
2023/04/13 02:54:32;;;;;;;3.00;1.07;;;7.20;1.00;;;;;;5041879;28;20198;-65
2023/04/13 02:57:00;;;;;;;2.63;1.10;;;7.20;1.00;;;;;;5025992;28;20200;-65
2023/04/13 02:59:28;;;;;;;3.10;1.10;;;7.20;1.00;;;;;;5031126;28;20230;-65
2023/04/13 03:01:57;;;;;;;2.40;1.00;;;7.20;1.00;;;;;;5010432;28;20212;-66
2023/04/13 03:04:28;;;;;;;3.17;0.87;;;7.20;1.00;;;;;;5031373;28;20199;-65
2023/04/13 03:06:55;;;;;;;2.77;1.17;;;7.20;1.00;;;;;;5031184;28;20201;-68
2023/04/13 03:09:24;;;;;;;3.00;1.10;;;7.30;1.00;;;;;;5016540;28;20210;-67
2023/04/13 03:11:55;;;;;;;2.37;1.30;;;7.30;1.00;;;;;;5004979;28;20283;-68
2023/04/13 03:14:28;;;;;;;2.93;1.10;;;7.40;1.00;;;;;;5050535;28;20787;-67
2023/04/13 03:17:03;;;;;;;2.53;1.20;;;7.30;1.00;;;;;;5024575;28;20195;-67
2023/04/13 03:19:36;;;;;;;1.37;0.90;;;7.30;1.00;;;;;;5031396;28;20206;-67
2023/04/13 03:22:04;;;;;;;2.27;0.93;;;7.30;1.00;;;;;;5026506;28;20188;-67
2023/04/13 03:24:34;;;;;;;3.33;1.20;;;7.30;1.00;;;;;;5049755;28;20265;-67
2023/04/13 03:27:05;;;;;;;4.43;1.60;;;7.30;1.00;;;;;;5033357;28;20275;-67
2023/04/13 03:29:37;;;;;;;2.20;1.03;;;7.40;1.00;;;;;;5032330;28;20202;-67
2023/04/13 03:32:06;;;;;;;2.50;1.00;;;7.50;1.00;;;;;;5032648;28;20192;-67
2023/04/13 03:34:39;;;;;;;1.77;1.10;;;7.60;1.00;;;;;;5048468;28;20242;-67
2023/04/13 03:37:10;;;;;;;2.97;1.17;;;7.60;1.00;;;;;;5042958;28;20211;-67
2023/04/13 03:39:38;;;;;;;3.97;1.30;;;7.70;1.00;;;;;;5026982;28;20215;-69
2023/04/13 03:42:08;;;;;;;4.10;1.20;;;7.70;1.00;;;;;;5011913;28;20219;-67
2023/04/13 03:44:41;;;;;;;2.37;1.20;;;7.70;1.00;;;;;;5031521;28;20250;-67
2023/04/13 03:47:09;;;;;;;2.37;0.90;;;7.70;1.00;;;;;;5027459;28;20563;-67
2023/04/13 03:49:36;;;;;;;3.30;1.20;;;7.60;1.00;;;;;;5011502;28;20202;-67
2023/04/13 03:52:03;;;;;;;3.97;1.37;;;7.70;1.00;;;;;;5027003;28;20203;-67
2023/04/13 03:54:36;;;;;;;3.23;0.90;;;7.80;1.00;;;;;;5014071;28;20238;-67
2023/04/13 03:57:03;;;;;;;3.00;1.17;;;7.80;1.00;;;;;;5040825;28;20295;-68
2023/04/13 03:59:31;;;;;;;4.97;1.10;;;7.80;1.00;;;;;;5024490;28;20203;-67
2023/04/13 04:02:01;;;;;;;2.50;1.00;;;7.80;1.00;;;;;;5022726;28;20215;-67
2023/04/13 04:04:29;;;;;;;1.90;1.00;;;7.80;1.00;;;;;;5031483;28;20663;-67
2023/04/13 04:06:56;;;;;;;2.53;1.00;;;7.70;1.00;;;;;;5045728;28;20191;-67
2023/04/13 04:09:25;;;;;;;3.07;1.20;;;7.70;1.00;;;;;;5028872;28;20695;-67
2023/04/13 04:11:56;;;;;;;4.63;1.30;;;7.60;1.00;;;;;;5026483;28;20231;-67
2023/04/13 04:14:35;;;;;;;2.60;0.93;;;7.70;1.00;;;;;;5020382;28;20203;-67
2023/04/13 04:17:13;;;;;;;2.10;0.90;;;7.70;1.00;;;;;;5020958;28;20721;-67
2023/04/13 04:19:40;;;;;;;3.30;1.00;;;7.70;1.00;;;;;;5027384;28;20187;-67
2023/04/13 04:22:08;;;;;;;2.33;1.07;;;7.70;1.00;;;;;;5010870;28;20210;-67
2023/04/13 04:24:38;;;;;;;2.93;1.00;;;7.60;1.00;;;;;;5023664;28;20631;-66
2023/04/13 04:27:06;;;;;;;1.33;0.90;;;7.60;1.00;;;;;;5022974;28;20201;-67
2023/04/13 04:29:33;;;;;;;2.80;1.27;;;7.60;1.00;;;;;;5022185;28;20689;-67
2023/04/13 04:32:09;;;;;;;1.20;1.00;;;7.60;1.00;;;;;;5029409;28;20206;-66
2023/04/13 04:34:39;;;;;;;1.43;1.00;;;7.60;1.00;;;;;;5037041;28;20540;-67
2023/04/13 04:37:12;;;;;;;2.57;1.20;;;7.60;1.00;;;;;;5014234;28;20199;-66
2023/04/13 04:39:55;;;;;;;3.00;1.10;;;7.60;1.00;;;;;;5023832;28;20235;-67
2023/04/13 04:42:24;;;;;;;1.40;1.10;;;7.60;1.00;;;;;;5026209;28;20269;-67
2023/04/13 04:44:51;;;;;;;2.17;1.03;;;7.60;1.00;;;;;;5005051;28;20196;-71
2023/04/13 04:47:20;;;;;;;2.80;1.17;;;7.60;1.00;;;;;;5039249;28;20192;-67
2023/04/13 04:50:03;;;;;;;2.03;1.00;;;7.60;1.00;;;;;;5027862;28;20324;-66
2023/04/13 04:52:35;;;;;;;1.53;1.00;;;7.50;1.00;;;;;;5028207;28;20803;-67
2023/04/13 04:55:05;;;;;;;2.17;1.10;;;7.60;1.00;;;;;;5030528;28;20224;-68
2023/04/13 04:57:33;;;;;;;2.77;0.90;;;7.60;1.00;;;;;;5039525;28;20222;-67
2023/04/13 05:00:14;;;;;;;3.80;1.30;;;7.60;1.00;;;;;;5030927;28;20200;-66
2023/04/13 05:02:49;;;;;;;1.27;0.93;;;7.60;1.00;;;;;;5032739;28;20261;-67
2023/04/13 05:05:17;;;;;;;3.07;1.00;;;7.60;1.00;;;;;;5033227;28;20192;-66
2023/04/13 05:07:44;;;;;;;2.97;1.00;;;7.60;1.00;;;;;;5041769;28;20191;-66
2023/04/13 05:10:12;;;;;;;3.23;1.63;;;7.70;1.00;;;;;;5022845;28;20704;-69
2023/04/13 05:12:46;;;;;;;1.90;1.07;;;7.60;1.00;;;;;;5016562;28;20656;-65
2023/04/13 05:15:13;;;;;;;1.67;1.07;;;7.60;1.00;;;;;;5026329;28;20226;-66
2023/04/13 05:17:40;;;;;;;4.37;1.20;;;7.60;1.00;;;;;;5015783;28;20200;-65
2023/04/13 05:20:08;;;;;;;2.80;1.37;;;7.60;1.00;;;;;;5020563;28;20195;-65
2023/04/13 05:22:44;;;;;;;2.67;1.20;;;7.50;1.00;;;;;;5015967;28;20655;-65
2023/04/13 05:25:12;;;;;;;1.83;1.20;;;7.50;1.00;;;;;;5016313;28;20189;-65
2023/04/13 05:27:40;;;;;;;2.00;1.00;;;7.50;1.00;;;;;;5013618;28;20254;-65
2023/04/13 05:30:08;;;;;;;3.37;1.20;;;7.50;1.00;;;;;;4996273;28;20559;-65
2023/04/13 05:32:37;;;;;;;2.50;1.10;;;7.40;1.00;;;;;;5013506;28;20196;-66
2023/04/13 05:35:06;;;;;;;2.33;1.13;;;7.40;1.00;;;;;;5025528;28;20793;-65
2023/04/13 05:37:33;;;;;;;3.53;1.07;;;7.40;1.00;;;;;;5023097;28;20252;-65
2023/04/13 05:40:01;;;;;;;6.27;1.53;;;7.40;1.00;;;;;;4996562;28;20671;-66
2023/04/13 05:42:32;;;;;;;2.30;1.10;;;7.40;1.00;;;;;;5028987;28;20219;-65
2023/04/13 05:45:00;;;;;;;2.17;1.10;;;7.40;1.00;;;;;;5031909;28;20864;-65
2023/04/13 05:47:28;;;;;;;2.83;1.10;;;7.40;1.00;;;;;;5023207;28;20192;-65
2023/04/13 05:50:01;;;;;;;2.93;1.30;;;7.40;1.00;;;;;;4997495;28;20192;-67
2023/04/13 05:52:29;;;;;;;2.30;1.10;;;7.50;1.00;;;;;;5014743;28;20287;-67
2023/04/13 05:54:56;;;;;;;3.03;1.10;;;7.60;1.00;;;;;;5012254;28;20682;-66
2023/04/13 05:57:25;;;;;;;3.80;1.37;;;7.60;1.00;;;;;;5012074;28;20200;-66
2023/04/13 05:59:54;;;;;;;2.80;1.30;;;7.60;1.00;;;;;;5011143;28;20306;-67
2023/04/13 06:02:25;;;;;;;4.23;1.20;;;7.90;1.00;;;;;;5009287;28;20390;-66
2023/04/13 06:04:53;;;;;;;3.47;1.33;;;8.20;1.00;;;;;;5015760;28;20227;-66
2023/04/13 06:07:22;;;;;;;2.90;1.10;;;9.40;1.00;;;;;;5025125;28;20192;-66
2023/04/13 06:09:49;;;;;;;1.40;1.17;;;11.00;1.00;;;;;;5033286;28;20258;-66
2023/04/13 06:12:17;;;;;;;4.90;1.47;;;12.70;1.00;;;;;;5025392;28;20246;-67
2023/04/13 06:14:44;;;;;;;3.83;1.30;;;13.60;1.00;;;;;;5020793;28;20250;-67
2023/04/13 06:17:11;;;;;;;3.43;1.17;;;14.70;1.00;;;;;;5040901;28;20593;-67
2023/04/13 06:19:39;;;;;;;1.60;1.20;;;12.60;1.00;;;;;;5029805;28;20710;-67
2023/04/13 06:22:06;;;;;;;1.70;1.10;;;10.80;1.00;;;;;;5023895;28;20213;-66
2023/04/13 06:24:36;;;;;;;2.47;1.57;;;9.50;1.00;;;;;;5023102;28;20299;-67
2023/04/13 06:27:06;;;;;;;2.27;1.30;;;9.10;1.00;;;;;;5015481;28;20195;-66
2023/04/13 06:29:33;;;;;;;1.93;1.50;;;8.90;1.00;;;;;;5026190;28;20204;-66
2023/04/13 06:32:06;;;;;;;3.20;1.80;;;8.70;1.00;;;;;;5017358;28;20250;-66
2023/04/13 06:34:34;;;;;;;2.30;1.37;;;8.60;1.00;;;;;;5034929;28;20667;-66
2023/04/13 06:37:03;;;;;;;3.60;1.60;;;8.50;1.00;;;;;;5013165;28;20682;-66
2023/04/13 06:39:40;;;;;;;2.97;1.40;;;8.60;1.00;;;;;;5032695;28;20196;-65
2023/04/13 06:42:08;;;;;;;5.73;1.57;;;8.40;1.00;;;;;;5031664;28;20290;-66
2023/04/13 06:44:57;;;;;;;2.90;1.33;;;8.40;1.00;;;;;;5025363;28;20215;-66
2023/04/13 06:47:26;;;;;;;2.80;2.10;;;8.90;1.00;;;;;;5035914;28;20551;-65
2023/04/13 06:49:54;;;;;;;2.70;1.60;;;9.50;1.00;;;;;;5022421;28;20198;-62
2023/04/13 06:52:22;;;;;;;3.07;2.10;;;9.50;1.00;;;;;;5025428;28;20211;-62
2023/04/13 06:54:49;;;;;;;8.63;5.20;;;11.30;1.00;;;;;;5034821;28;20196;-62
2023/04/13 06:57:28;;;;;;;3.07;1.70;;;10.50;1.00;;;;;;5028278;28;20567;-63
2023/04/13 06:59:55;;;;;;;6.40;2.37;;;10.40;1.00;;;;;;5024726;28;20281;-63
2023/04/13 07:02:22;;;;;;;3.83;1.80;;;10.10;1.00;;;;;;5021111;28;20327;-64
2023/04/13 07:04:50;;;;;;;4.83;2.23;;;9.80;1.00;;;;;;5026253;28;20199;-63
2023/04/13 07:07:17;;;;;;;6.20;2.03;;;9.70;1.00;;;;;;5039236;28;20607;-65
2023/04/13 07:09:45;;;;;;;2.37;1.90;;;9.50;1.00;;;;;;5049778;28;20239;-63
2023/04/13 07:12:12;;;;;;;2.77;1.90;;;9.50;1.00;;;;;;5028754;28;20854;-63
2023/04/13 07:14:40;;;;;;;4.47;2.10;;;9.70;1.00;;;;;;5030983;28;20195;-63
2023/04/13 07:17:09;;;;;;;3.63;2.03;;;9.60;1.00;;;;;;5021035;28;20290;-63
2023/04/13 07:19:45;;;;;;;7.70;6.17;;;11.10;1.00;;;;;;5029408;28;20746;-63
2023/04/13 07:22:13;;;;;;;4.97;2.17;;;11.50;1.00;;;;;;5028819;28;20202;-63
2023/04/13 07:24:41;;;;;;;5.20;1.47;;;10.50;1.00;;;;;;5032207;28;20266;-64
2023/04/13 07:27:13;;;;;;;4.10;1.63;;;10.40;1.00;;;;;;5031597;28;20204;-64
2023/04/13 07:29:40;;;;;;;4.90;1.93;;;10.00;1.00;;;;;;5029324;28;20196;-62
2023/04/13 07:32:12;;;;;;;4.13;1.90;;;9.80;1.00;;;;;;5036257;28;20191;-63
2023/04/13 07:34:40;;;;;;;2.20;1.53;;;9.80;1.00;;;;;;5021246;28;20204;-65
2023/04/13 07:37:07;;;;;;;2.13;1.60;;;9.70;1.00;;;;;;5031655;28;20257;-62
2023/04/13 07:39:35;;;;;;;4.13;1.67;;;9.60;1.00;;;;;;5011169;28;20258;-63
2023/04/13 07:42:02;;;;;;;3.13;1.50;;;9.70;1.00;;;;;;5027080;28;20691;-62
2023/04/13 07:44:36;;;;;;;4.13;1.43;;;9.70;1.00;;;;;;5036704;28;20636;-63
2023/04/13 07:47:03;;;;;;;3.63;1.50;;;9.60;1.00;;;;;;5033534;28;20196;-63
2023/04/13 07:49:32;;;;;;;3.33;1.40;;;9.80;1.00;;;;;;5016304;28;20195;-63
2023/04/13 07:51:59;;;;;;;1.20;1.00;;;9.70;1.00;;;;;;5034154;28;20195;-64
2023/04/13 07:54:30;;;;;;;3.17;1.50;;;9.70;1.00;;;;;;5028687;28;20196;-62
2023/04/13 07:56:57;;;;;;;1.73;1.27;;;9.60;1.00;;;;;;5025150;28;20192;-63
2023/04/13 07:59:28;;;;;;;2.00;1.20;;;9.70;1.00;;;;;;5049107;28;20204;-63
2023/04/13 08:01:56;;;;;;;3.83;1.30;;;9.80;1.00;;;;;;5025305;28;20294;-63
2023/04/13 08:04:24;;;;;;;1.77;1.20;;;9.90;1.00;;;;;;5003664;28;20223;-63
2023/04/13 08:06:52;;;;;;;2.40;1.27;;;11.40;1.00;;;;;;5027515;28;20206;-63
2023/04/13 08:09:20;;;;;;;2.70;0.90;;;13.40;1.00;;;;;;5017450;28;20204;-62
2023/04/13 08:11:48;;;;;;;1.67;1.10;;;15.40;1.00;;;;;;5022648;28;20199;-63
2023/04/13 08:14:16;;;;;;;3.45;1.17;;;17.00;1.00;;;;;;5040847;28;20303;-63
2023/04/13 08:16:43;;;;;;;1.98;1.10;;;18.30;1.00;;;;;;5015219;28;20536;-64
2023/04/13 08:19:11;;;;;;;2.50;1.10;;;17.50;1.00;;;;;;5037255;28;20245;-63
2023/04/13 08:21:46;;;;;;;2.50;1.00;;;17.80;1.00;;;;;;5008753;28;20245;-64
2023/04/13 08:24:13;;;;;;;4.68;1.17;;;18.30;1.00;;;;;;5020563;28;20206;-66
2023/04/13 08:26:41;;;;;;;3.33;1.05;;;17.40;1.00;;;;;;5027932;28;20192;-63
2023/04/13 08:29:09;;;;;;;5.03;1.27;;;17.50;1.00;;;;;;5027997;28;20196;-63
2023/04/13 08:31:36;;;;;;;1.98;1.20;;;16.40;1.00;;;;;;5026197;28;20682;-63
2023/04/13 08:34:05;;;;;;;2.53;0.88;;;17.60;1.00;;;;;;5025629;28;20223;-64
2023/04/13 08:36:32;;;;;;;1.33;1.00;;;17.50;1.00;;;;;;5028508;28;20206;-64
2023/04/13 08:39:04;;;;;;;2.67;1.23;;;17.60;1.00;;;;;;5025353;28;20560;-63
2023/04/13 08:41:42;;;;;;;2.47;1.10;;;18.40;1.00;;;;;;5026647;28;20220;-63
2023/04/13 08:44:12;;;;;;;3.60;1.00;;;17.40;1.00;;;;;;5021559;28;20222;-64
2023/04/13 08:46:46;;;;;;;3.55;1.38;;;17.70;1.00;;;;;;5022053;28;20203;-63
2023/04/13 08:49:17;;;;;;;1.38;0.95;;;16.00;1.00;;;;;;5020013;28;20807;-62
2023/04/13 08:52:07;;;;;;;2.40;0.95;;;16.00;1.00;;;;;;5035019;28;20208;-62
2023/04/13 08:54:36;;;;;;;2.28;1.10;;;16.20;1.00;;;;;;5021191;28;20663;-63
2023/04/13 08:57:08;;;;;;;3.38;1.45;;;15.20;1.00;;;;;;5021269;28;20784;-64
2023/04/13 08:59:40;;;;;;;3.33;1.13;;;13.40;1.00;;;;;;5023829;28;20910;-63
2023/04/13 09:02:08;;;;;;;2.57;1.27;;;12.60;1.00;;;;;;5036140;28;20216;-63
2023/04/13 09:04:49;;;;;;;2.97;1.30;;;12.30;1.00;;;;;;5022639;28;20191;-62
2023/04/13 09:07:26;;;;;;;3.13;1.43;;;11.60;1.00;;;;;;5021342;28;20192;-64
2023/04/13 09:09:59;;;;;;;2.83;1.20;;;11.40;1.00;;;;;;5045071;28;20253;-63
2023/04/13 09:12:27;;;;;;;3.30;1.13;;;11.30;1.00;;;;;;5024289;28;20263;-63
2023/04/13 09:14:55;;;;;;;2.23;1.30;;;11.20;1.00;;;;;;5024531;28;20205;-63
2023/04/13 09:17:29;;;;;;;2.40;1.27;;;11.50;1.00;;;;;;5027010;28;20192;-63
2023/04/13 09:20:20;;;;;;;3.07;1.10;;;11.70;1.00;;;;;;5018435;28;20201;-63
2023/04/13 09:22:49;;;;;;;3.33;1.20;;;11.50;1.00;;;;;;5022759;28;20560;-63
2023/04/13 09:25:24;;;;;;;3.47;1.23;;;11.10;1.00;;;;;;5048035;28;20718;-63
2023/04/13 09:27:51;;;;;;;3.27;1.30;;;11.10;1.00;;;;;;5044359;28;20242;-64
2023/04/13 09:30:20;;;;;;;3.63;1.57;;;11.00;1.00;;;;;;5034517;28;20207;-63
2023/04/13 09:32:48;;;;;;;2.20;1.07;;;11.10;1.00;;;;;;5018738;28;20689;-64
2023/04/13 09:35:15;;;;;;;1.97;1.17;;;11.00;1.00;;;;;;5036078;28;20205;-65
2023/04/13 09:37:43;;;;;;;2.20;1.17;;;11.30;1.00;;;;;;5038631;28;20200;-63
2023/04/13 09:40:15;;;;;;;2.53;1.40;;;11.30;1.00;;;;;;5045752;28;20191;-62
2023/04/13 09:43:04;;;;;;;3.63;1.43;;;11.60;1.00;;;;;;5029523;28;20218;-62
2023/04/13 09:45:38;;;;;;;3.03;1.30;;;11.50;1.00;;;;;;5041480;28;20195;-63
2023/04/13 09:48:21;;;;;;;1.87;1.20;;;11.90;1.00;;;;;;5046228;28;20650;-65
2023/04/13 09:51:00;;;;;;;3.97;1.50;;;12.00;1.00;;;;;;5046129;28;20191;-64
2023/04/13 09:53:42;;;;;;;2.83;1.30;;;11.60;1.00;;;;;;5050550;28;20210;-62
2023/04/13 09:56:09;;;;;;;3.27;1.60;;;11.00;1.00;;;;;;5012646;28;20196;-63
2023/04/13 09:58:46;;;;;;;2.97;1.50;;;11.50;1.00;;;;;;5044951;28;20201;-63
2023/04/13 10:01:18;;;;;;;3.53;1.20;;;12.20;1.00;;;;;;5040576;28;20211;-64
2023/04/13 10:03:45;;;;;;;2.63;1.70;;;12.00;1.00;;;;;;5042222;28;20726;-63
2023/04/13 10:06:13;;;;;;;4.77;1.90;;;11.90;1.00;;;;;;5041079;28;21010;-63
2023/04/13 10:08:45;;;;;;;5.23;1.93;;;11.70;1.00;;;;;;5026116;28;20192;-63
2023/04/13 10:11:13;;;;;;;2.80;1.40;;;12.20;1.00;;;;;;5042757;28;20697;-64
2023/04/13 10:13:49;;;;;;;3.60;1.83;;;13.20;1.00;;;;;;5044917;28;20594;-63
2023/04/13 10:16:20;;;;;;;2.87;1.57;;;12.70;1.00;;;;;;5043171;28;20304;-65
2023/04/13 10:18:58;;;;;;;3.17;1.80;;;13.30;1.00;;;;;;5046202;28;20274;-64
2023/04/13 10:21:38;;;;;;;3.93;2.30;;;13.20;1.00;;;;;;5026484;28;20191;-63
2023/04/13 10:24:08;;;;;;;3.97;2.43;;;12.70;1.00;;;;;;5027231;28;20283;-63
2023/04/13 10:26:40;;;;;;;2.57;1.50;;;12.70;1.00;;;;;;5038250;28;20195;-63
2023/04/13 10:29:08;;;;;;;5.17;1.93;;;12.10;1.00;;;;;;5042649;28;20559;-63
2023/04/13 10:31:48;;;;;;;7.63;2.03;;;12.20;1.00;;;;;;5047368;28;20198;-64
2023/04/13 10:34:33;;;;;;;5.07;1.77;;;12.20;1.00;;;;;;5040850;28;20640;-63
2023/04/13 10:37:05;;;;;;;3.90;1.53;;;12.30;1.00;;;;;;5027781;28;20184;-63
2023/04/13 10:39:34;;;;;;;4.97;1.60;;;12.30;1.00;;;;;;5044317;28;20565;-63
2023/04/13 10:42:06;;;;;;;5.53;1.50;;;12.60;1.00;;;;;;5048707;28;20253;-63
2023/04/13 10:44:50;;;;;;;3.43;1.80;;;13.50;1.00;;;;;;5042874;28;20195;-63
2023/04/13 10:47:22;;;;;;;4.93;1.63;;;14.30;1.00;;;;;;5042236;28;20678;-65
2023/04/13 10:49:53;;;;;;;5.25;1.58;;;14.30;1.00;;;;;;5025840;28;20754;-65
2023/04/13 10:52:20;;;;;;;2.97;1.50;;;14.60;1.00;;;;;;5027221;28;20204;-64
2023/04/13 10:54:48;;;;;;;2.50;1.48;;;14.70;1.00;;;;;;5010305;28;20571;-64
2023/04/13 10:57:15;;;;;;;5.75;1.75;;;13.80;1.00;;;;;;5047120;28;20187;-64
2023/04/13 10:59:48;;;;;;;5.57;1.67;;;13.80;1.00;;;;;;5031042;28;20210;-64
2023/04/13 11:02:30;;;;;;;4.93;1.80;;;13.60;1.00;;;;;;5027257;28;20255;-68
2023/04/13 11:04:58;;;;;;;7.80;1.90;;;13.40;1.00;;;;;;5038419;28;20215;-62
2023/04/13 11:07:25;;;;;;;4.70;1.80;;;12.60;1.00;;;;;;5049579;28;20191;-63
2023/04/13 11:09:57;;;;;;;3.43;2.30;;;12.30;1.00;;;;;;5027878;28;20531;-66
2023/04/13 11:12:27;;;;;;;5.73;2.17;;;12.10;1.00;;;;;;5040674;28;20686;-64
2023/04/13 11:14:54;;;;;;;5.23;2.10;;;11.90;1.00;;;;;;5053154;28;20196;-64
2023/04/13 11:17:21;;;;;;;4.83;2.10;;;12.10;1.00;;;;;;5047613;28;20223;-62
2023/04/13 11:19:54;;;;;;;5.30;2.10;;;12.20;1.00;;;;;;5045546;28;20698;-62
2023/04/13 11:22:23;;;;;;;4.07;1.93;;;12.10;1.00;;;;;;5023090;28;20230;-65
2023/04/13 11:24:50;;;;;;;5.93;2.23;;;12.10;1.00;;;;;;5026613;28;20191;-62
2023/04/13 11:27:22;;;;;;;5.00;2.07;;;12.10;1.00;;;;;;5025843;28;20742;-63
2023/04/13 11:30:04;;;;;;;9.23;2.90;;;11.90;1.00;;;;;;5041505;28;20191;-63
2023/04/13 11:32:35;;;;;;;9.70;2.87;;;11.80;1.00;;;;;;5018743;28;20836;-62
2023/04/13 11:35:07;;;;;;;5.37;2.53;;;11.60;1.00;;;;;;5043795;28;20538;-64
2023/04/13 11:37:36;;;;;;;8.53;3.60;;;11.90;1.00;;;;;;5048458;28;20950;-63
2023/04/13 11:40:13;;;;;;;4.20;1.80;;;12.30;1.00;;;;;;5032958;28;20211;-64
2023/04/13 11:42:42;;;;;;;7.60;2.37;;;12.50;1.00;;;;;;5038602;28;20207;-64
2023/04/13 11:45:12;;;;;;;7.80;2.40;;;12.70;1.00;;;;;;5044040;28;20215;-63
2023/04/13 11:47:39;;;;;;;10.20;2.70;;;12.60;1.00;;;;;;5027705;28;21223;-63
2023/04/13 11:50:06;;;;;;;6.53;2.20;;;12.70;1.00;;;;;;5027506;28;20663;-63
2023/04/13 11:52:34;;;;;;;7.47;2.67;;;12.30;1.00;;;;;;5044317;28;20651;-62
2023/04/13 11:55:03;;;;;;;9.03;2.10;;;12.30;1.00;;;;;;5043769;28;20204;-63
2023/04/13 11:57:48;;;;;;;7.53;2.40;;;12.30;1.00;;;;;;5043486;28;20183;-62
2023/04/13 12:00:26;;;;;;;8.73;2.70;;;12.00;1.00;;;;;;5041092;28;20192;-62
2023/04/13 12:02:55;;;;;;;9.40;2.60;;;11.90;1.00;;;;;;5041788;28;20725;-63
2023/04/13 12:05:27;;;;;;;7.27;2.70;;;12.20;1.00;;;;;;5024890;28;20286;-62
2023/04/13 12:07:56;;;;;;;7.33;2.93;;;12.90;1.00;;;;;;5043913;28;20210;-63
2023/04/13 12:10:29;;;;;;;8.00;3.20;;;13.60;1.00;;;;;;5040328;28;20591;-63
2023/04/13 12:13:12;;;;;;;6.93;2.50;;;13.60;1.00;;;;;;5037855;28;20206;-64
2023/04/13 12:15:46;;;;;;;9.90;3.50;;;13.70;1.00;;;;;;5040273;28;20254;-62
2023/04/13 12:18:41;;;;;;;10.63;2.93;;;13.30;1.00;;;;;;5043536;28;20330;-62
2023/04/13 12:21:15;;;;;;;6.70;2.57;;;13.70;1.00;;;;;;5042775;28;20189;-63
2023/04/13 12:23:57;;;;;;;7.50;2.20;;;14.10;1.00;;;;;;5052560;28;20218;-63
2023/04/13 12:26:32;;;;;;;7.38;2.47;;;14.60;1.00;;;;;;5044572;28;20191;-61
2023/04/13 12:29:21;;;;;;;8.15;2.40;;;14.80;1.00;;;;;;5039565;28;20191;-62
2023/04/13 12:31:48;;;;;;;8.02;2.22;;;15.30;1.00;;;;;;5028146;28;20198;-61
2023/04/13 12:34:15;;;;;;;9.55;2.88;;;15.50;1.00;;;;;;5024742;28;20254;-61
2023/04/13 12:36:42;;;;;;;5.40;2.33;;;14.90;1.00;;;;;;5049387;28;20202;-62
2023/04/13 12:39:09;;;;;;;8.88;2.42;;;14.30;1.00;;;;;;5048605;28;20708;-61
2023/04/13 12:41:36;;;;;;;8.70;2.53;;;13.90;1.00;;;;;;5045177;28;20191;-61
2023/04/13 12:44:03;;;;;;;7.22;2.22;;;14.70;1.00;;;;;;5045947;28;20231;-61
2023/04/13 12:46:31;;;;;;;7.68;2.50;;;15.20;1.00;;;;;;5044870;28;20188;-61
2023/04/13 12:48:58;;;;;;;6.38;2.50;;;15.10;1.00;;;;;;5052751;28;20266;-61
2023/04/13 12:51:25;;;;;;;12.38;2.85;;;15.00;1.00;;;;;;5021057;28;20201;-61
2023/04/13 12:53:52;;;;;;;6.72;2.45;;;14.90;1.00;;;;;;5038685;28;20227;-61
2023/04/13 12:56:19;;;;;;;6.10;2.30;;;14.30;1.00;;;;;;5038293;28;20667;-63
2023/04/13 12:58:47;;;;;;;7.70;2.13;;;14.50;1.00;;;;;;5047246;28;20278;-61
2023/04/13 13:01:14;;;;;;;5.63;2.33;;;14.60;1.00;;;;;;5026108;28;21028;-61
2023/04/13 13:03:42;;;;;;;6.30;2.10;;;14.10;1.00;;;;;;5044050;28;20218;-61
2023/04/13 13:06:09;;;;;;;7.40;2.63;;;14.00;1.00;;;;;;5021708;28;20192;-61
2023/04/13 13:08:38;;;;;;;8.50;2.73;;;13.90;1.00;;;;;;5014595;28;20244;-61
2023/04/13 13:11:07;;;;;;;10.70;2.60;;;13.60;1.00;;;;;;5020436;28;20223;-64
2023/04/13 13:13:34;;;;;;;9.20;2.63;;;13.50;1.00;;;;;;5040998;28;20364;-62
2023/04/13 13:16:01;;;;;;;7.90;2.80;;;13.70;1.00;;;;;;5025738;28;20235;-61
2023/04/13 13:18:28;;;;;;;4.43;2.03;;;14.30;1.00;;;;;;5030942;28;20211;-61
2023/04/13 13:21:12;;;;;;;13.27;2.55;;;14.30;1.00;;;;;;5024674;28;20191;-61